Time;durP1;ratioP1;P1;durP2;ratioP2;P2;SDS_P1;SDS_P2;PMS_P1;PMS_P2;Temp;Humidity;BMP_temperature;BMP_pressure;BME280_temperature;BME280_humidity;BME280_pressure;Samples;Min_cycle;Max_cycle;Signal;HPM_P1;HPM_P2
2021/06/12 00:01:18;;;;;;;5.20;4.10;;;;;;;;;;5070033;28;20025;-72
2021/06/12 00:03:44;;;;;;;4.20;3.75;;;;;;;;;;5073753;28;20044;-75
2021/06/12 00:06:10;;;;;;;5.53;3.50;;;;;;;;;;5072334;28;20028;-72
2021/06/12 00:08:36;;;;;;;5.88;3.72;;;;;;;;;;5075230;28;20035;-74
2021/06/12 00:11:02;;;;;;;8.13;4.45;;;;;;;;;;5073506;28;20021;-76
2021/06/12 00:13:29;;;;;;;7.22;4.22;;;;;;;;;;5075304;28;20109;-74
2021/06/12 00:15:55;;;;;;;4.32;3.92;;;;;;;;;;5072927;28;20016;-73
2021/06/12 00:18:21;;;;;;;8.02;4.22;;;;;;;;;;5074443;28;20097;-73
2021/06/12 00:20:47;;;;;;;7.18;4.00;;;;;;;;;;5074433;28;20024;-73
2021/06/12 00:23:13;;;;;;;4.78;3.95;;;;;;;;;;5073578;28;20027;-75
2021/06/12 00:25:39;;;;;;;6.50;4.00;;;;;;;;;;5074420;28;20536;-76
2021/06/12 00:28:06;;;;;;;7.32;3.92;;;;;;;;;;5073002;28;20028;-76
2021/06/12 00:30:34;;;;;;;5.97;3.73;;;;;;;;;;5072145;28;20515;-74
2021/06/12 00:33:00;;;;;;;6.00;4.25;;;;;;;;;;5071431;28;20032;-75
2021/06/12 00:35:26;;;;;;;5.00;3.60;;;;;;;;;;5071371;28;20052;-73
2021/06/12 00:37:52;;;;;;;5.65;4.03;;;;;;;;;;5072824;28;20154;-74
2021/06/12 00:40:19;;;;;;;5.95;4.30;;;;;;;;;;5073136;28;20413;-76
2021/06/12 00:42:45;;;;;;;5.47;3.85;;;;;;;;;;5071880;28;20036;-75
2021/06/12 00:45:13;;;;;;;6.60;3.67;;;;;;;;;;5073534;28;20024;-74
2021/06/12 00:47:39;;;;;;;4.95;3.85;;;;;;;;;;5071912;28;20104;-76
2021/06/12 00:50:05;;;;;;;8.02;4.07;;;;;;;;;;5072395;28;20652;-73
2021/06/12 00:52:31;;;;;;;5.80;3.90;;;;;;;;;;5072101;28;20477;-73
2021/06/12 00:54:57;;;;;;;5.30;3.92;;;;;;;;;;5073392;28;20047;-76
2021/06/12 00:57:23;;;;;;;5.80;3.80;;;;;;;;;;5072749;28;20033;-75
2021/06/12 00:59:49;;;;;;;4.68;3.72;;;;;;;;;;5071248;28;20073;-74
2021/06/12 01:02:15;;;;;;;4.10;3.70;;;;;;;;;;5072961;28;20374;-72
2021/06/12 01:04:41;;;;;;;6.07;3.75;;;;;;;;;;5074342;28;20024;-75
2021/06/12 01:07:07;;;;;;;9.15;3.88;;;;;;;;;;5070223;28;20031;-72
2021/06/12 01:09:33;;;;;;;8.10;3.80;;;;;;;;;;5072050;28;20056;-72
2021/06/12 01:12:07;;;;;;;5.03;3.70;;;;;;;;;;5071054;28;20029;-74
2021/06/12 01:14:34;;;;;;;6.63;4.07;;;;;;;;;;5071290;28;20021;-72
2021/06/12 01:17:01;;;;;;;;;;;;;;;;;;5071902;28;20028;-74
2021/06/12 01:19:39;;;;;;;7.57;3.95;;;;;;;;;;5072605;28;19904;-72
2021/06/12 01:22:25;;;;;;;5.30;3.78;;;;;;;;;;5073353;28;20157;-72
2021/06/12 01:25:07;;;;;;;4.30;3.55;;;;;;;;;;5054857;28;20393;-74
2021/06/12 01:27:50;;;;;;;6.10;3.60;;;;;;;;;;5054965;28;20037;-73
2021/06/12 01:30:20;;;;;;;6.03;4.30;;;;;;;;;;5071337;28;20036;-75
2021/06/12 01:32:47;;;;;;;5.85;3.85;;;;;;;;;;5071984;28;20420;-73
2021/06/12 01:35:23;;;;;;;6.00;3.72;;;;;;;;;;5070536;28;20071;-76
2021/06/12 01:37:50;;;;;;;6.00;4.47;;;;;;;;;;5070491;28;20036;-72
2021/06/12 01:40:16;;;;;;;5.50;3.88;;;;;;;;;;5072119;28;20081;-72
2021/06/12 01:42:43;;;;;;;5.60;3.85;;;;;;;;;;5070702;28;20055;-75
2021/06/12 01:45:09;;;;;;;6.80;3.95;;;;;;;;;;5072451;28;20239;-74
2021/06/12 01:47:35;;;;;;;4.20;3.43;;;;;;;;;;5070144;28;20406;-74
2021/06/12 01:50:01;;;;;;;5.35;3.80;;;;;;;;;;5053145;28;20028;-76
2021/06/12 01:52:28;;;;;;;5.22;3.90;;;;;;;;;;5069820;28;20070;-75
2021/06/12 01:54:54;;;;;;;7.00;3.70;;;;;;;;;;5070688;28;20432;-75
2021/06/12 01:57:20;;;;;;;5.90;3.80;;;;;;;;;;5070524;28;20044;-72
2021/06/12 01:59:47;;;;;;;7.47;3.72;;;;;;;;;;5070594;28;20021;-74
2021/06/12 02:02:13;;;;;;;6.03;3.85;;;;;;;;;;5069865;28;20021;-73
2021/06/12 02:04:39;;;;;;;6.32;4.07;;;;;;;;;;5072040;28;20024;-74
2021/06/12 02:07:06;;;;;;;6.60;4.28;;;;;;;;;;5070698;28;20028;-72
2021/06/12 02:09:32;;;;;;;5.00;3.85;;;;;;;;;;5053504;28;20115;-75
2021/06/12 02:11:58;;;;;;;6.05;3.95;;;;;;;;;;5070968;28;20103;-75
2021/06/12 02:14:24;;;;;;;5.78;4.00;;;;;;;;;;5070283;28;20157;-73
2021/06/12 02:16:50;;;;;;;4.65;3.90;;;;;;;;;;5070488;28;20493;-75
2021/06/12 02:19:16;;;;;;;5.00;4.18;;;;;;;;;;5070624;28;20025;-74
2021/06/12 02:21:42;;;;;;;5.22;4.25;;;;;;;;;;5070585;28;20128;-72
2021/06/12 02:24:08;;;;;;;7.43;4.18;;;;;;;;;;5072582;28;20021;-74
2021/06/12 02:26:36;;;;;;;7.10;4.30;;;;;;;;;;5069689;28;20108;-74
2021/06/12 02:29:02;;;;;;;4.47;3.90;;;;;;;;;;5070815;28;20389;-72
2021/06/12 02:31:29;;;;;;;4.60;4.07;;;;;;;;;;5070419;28;20028;-72
2021/06/12 02:33:55;;;;;;;9.32;4.13;;;;;;;;;;5070262;28;20044;-72
2021/06/12 02:36:21;;;;;;;5.57;4.32;;;;;;;;;;5067582;28;20043;-73
2021/06/12 02:38:47;;;;;;;5.22;3.90;;;;;;;;;;5052792;28;20466;-73
2021/06/12 02:41:14;;;;;;;5.88;4.10;;;;;;;;;;5069425;28;20028;-76
2021/06/12 02:43:40;;;;;;;8.02;4.82;;;;;;;;;;5071261;28;20039;-75
2021/06/12 02:46:07;;;;;;;5.00;4.38;;;;;;;;;;5071337;28;20385;-74
2021/06/12 02:48:33;;;;;;;5.53;4.18;;;;;;;;;;5054051;28;20017;-72
2021/06/12 02:50:59;;;;;;;8.02;4.30;;;;;;;;;;5052187;28;20421;-75
2021/06/12 02:53:26;;;;;;;6.57;4.35;;;;;;;;;;5070995;28;20024;-74
2021/06/12 02:55:52;;;;;;;6.05;4.07;;;;;;;;;;5070175;28;20067;-75
2021/06/12 02:58:20;;;;;;;6.75;4.10;;;;;;;;;;5070547;28;20028;-75
2021/06/12 03:00:46;;;;;;;6.47;4.28;;;;;;;;;;5070021;28;20016;-73
2021/06/12 03:03:13;;;;;;;7.03;4.43;;;;;;;;;;5069326;28;20390;-73
2021/06/12 03:05:39;;;;;;;5.72;4.32;;;;;;;;;;5070266;28;20101;-75
2021/06/12 03:08:05;;;;;;;5.10;4.07;;;;;;;;;;5069929;28;20029;-75
2021/06/12 03:10:31;;;;;;;8.40;4.25;;;;;;;;;;5053118;28;20024;-76
2021/06/12 03:12:57;;;;;;;5.90;4.67;;;;;;;;;;5068411;28;20020;-75
2021/06/12 03:15:23;;;;;;;8.10;4.40;;;;;;;;;;5068795;28;20035;-74
2021/06/12 03:17:49;;;;;;;9.23;4.53;;;;;;;;;;5067882;28;20763;-75
2021/06/12 03:20:16;;;;;;;6.43;4.20;;;;;;;;;;5068310;28;20017;-73
2021/06/12 03:22:43;;;;;;;6.20;3.97;;;;;;;;;;5069941;28;20024;-72
2021/06/12 03:25:09;;;;;;;7.30;4.25;;;;;;;;;;5069675;28;20696;-74
2021/06/12 03:27:35;;;;;;;6.80;4.03;;;;;;;;;;5052189;28;20124;-75
2021/06/12 03:30:01;;;;;;;6.57;4.40;;;;;;;;;;5069175;28;20107;-74
2021/06/12 03:32:27;;;;;;;4.70;4.10;;;;;;;;;;5068987;28;20035;-74
2021/06/12 03:34:53;;;;;;;9.23;3.85;;;;;;;;;;5070418;28;20020;-72
2021/06/12 03:37:20;;;;;;;8.70;4.32;;;;;;;;;;5072192;28;20037;-73
2021/06/12 03:39:46;;;;;;;9.98;4.18;;;;;;;;;;5056361;28;20031;-74
2021/06/12 03:42:12;;;;;;;6.15;4.43;;;;;;;;;;5074293;28;20048;-73
2021/06/12 03:44:38;;;;;;;8.07;4.57;;;;;;;;;;5074036;28;20021;-73
2021/06/12 03:47:05;;;;;;;8.82;4.40;;;;;;;;;;5074560;28;20029;-73
2021/06/12 03:49:31;;;;;;;6.28;4.82;;;;;;;;;;5073731;28;20036;-76
2021/06/12 03:51:57;;;;;;;8.20;4.32;;;;;;;;;;5055825;28;20040;-75
2021/06/12 03:54:23;;;;;;;5.60;4.30;;;;;;;;;;5073703;28;20044;-73
2021/06/12 03:56:49;;;;;;;5.70;4.30;;;;;;;;;;5072415;28;20098;-74
2021/06/12 03:59:15;;;;;;;6.80;4.18;;;;;;;;;;5057417;28;20025;-75
2021/06/12 04:01:41;;;;;;;6.38;4.03;;;;;;;;;;5056269;28;20031;-73
2021/06/12 04:04:07;;;;;;;4.95;4.20;;;;;;;;;;5056175;28;20097;-75
2021/06/12 04:06:33;;;;;;;8.40;4.40;;;;;;;;;;5056411;28;20024;-74
2021/06/12 04:08:59;;;;;;;7.72;4.30;;;;;;;;;;5073265;28;20040;-75
2021/06/12 04:11:25;;;;;;;6.30;4.28;;;;;;;;;;5074620;28;20024;-74
2021/06/12 04:13:51;;;;;;;6.32;4.40;;;;;;;;;;5072102;28;20031;-73
2021/06/12 04:16:17;;;;;;;7.95;4.50;;;;;;;;;;5072379;28;20107;-75
2021/06/12 04:18:44;;;;;;;5.53;4.28;;;;;;;;;;5057374;28;20028;-75
2021/06/12 04:21:10;;;;;;;6.00;4.00;;;;;;;;;;5073322;28;20025;-75
2021/06/12 04:23:36;;;;;;;10.40;4.68;;;;;;;;;;5074938;28;20340;-74
2021/06/12 04:26:02;;;;;;;6.25;4.10;;;;;;;;;;5056224;28;20537;-73
2021/06/12 04:28:28;;;;;;;5.03;3.97;;;;;;;;;;5074724;28;20013;-73
2021/06/12 04:30:54;;;;;;;6.97;4.10;;;;;;;;;;5073238;28;20052;-75
2021/06/12 04:33:20;;;;;;;7.15;4.35;;;;;;;;;;5073238;28;20039;-73
2021/06/12 04:35:46;;;;;;;6.43;4.25;;;;;;;;;;5073277;28;20023;-75
2021/06/12 04:38:12;;;;;;;6.32;4.05;;;;;;;;;;5072585;28;20401;-75
2021/06/12 04:40:38;;;;;;;5.65;4.32;;;;;;;;;;5072221;28;20044;-75
2021/06/12 04:43:04;;;;;;;5.75;4.30;;;;;;;;;;5072538;28;20059;-75
2021/06/12 04:45:31;;;;;;;6.18;4.47;;;;;;;;;;5056428;28;20024;-73
2021/06/12 04:47:57;;;;;;;7.63;4.28;;;;;;;;;;5071168;28;20048;-73
2021/06/12 04:50:23;;;;;;;7.28;4.45;;;;;;;;;;5070580;28;20060;-75
2021/06/12 04:52:49;;;;;;;6.80;4.75;;;;;;;;;;5073686;28;20378;-73
2021/06/12 04:55:15;;;;;;;6.38;4.50;;;;;;;;;;5073063;28;20047;-75
2021/06/12 04:57:41;;;;;;;7.57;4.32;;;;;;;;;;5072096;28;20033;-74
2021/06/12 05:00:08;;;;;;;5.67;4.77;;;;;;;;;;5072307;28;20533;-76
2021/06/12 05:02:34;;;;;;;6.57;4.32;;;;;;;;;;5071382;28;20668;-73
2021/06/12 05:05:00;;;;;;;6.03;4.40;;;;;;;;;;5071871;28;20045;-74
2021/06/12 05:07:26;;;;;;;5.82;4.10;;;;;;;;;;5054478;28;20044;-73
2021/06/12 05:09:52;;;;;;;5.05;4.20;;;;;;;;;;5072148;28;20024;-75
2021/06/12 05:12:19;;;;;;;4.82;3.88;;;;;;;;;;5071451;28;20492;-75
2021/06/12 05:14:48;;;;;;;;;;;;;;;;;;5072369;28;20385;-75
2021/06/12 05:17:16;;;;;;;5.80;4.15;;;;;;;;;;5072350;28;19908;-74
2021/06/12 05:19:42;;;;;;;6.63;4.40;;;;;;;;;;5037427;28;20021;-72
2021/06/12 05:22:08;;;;;;;5.65;4.50;;;;;;;;;;5043843;28;20025;-75
2021/06/12 05:24:35;;;;;;;5.70;4.70;;;;;;;;;;5053777;28;20114;-73
2021/06/12 05:27:01;;;;;;;6.85;4.80;;;;;;;;;;5071858;28;20036;-72
2021/06/12 05:29:27;;;;;;;6.80;4.32;;;;;;;;;;5073583;28;20024;-74
2021/06/12 05:31:53;;;;;;;7.72;4.10;;;;;;;;;;5069740;28;20032;-72
2021/06/12 05:34:19;;;;;;;6.43;4.03;;;;;;;;;;5071450;28;20797;-73
2021/06/12 05:36:45;;;;;;;6.22;3.90;;;;;;;;;;5072207;28;20029;-75
2021/06/12 05:39:11;;;;;;;5.63;3.95;;;;;;;;;;5071610;28;20033;-73
2021/06/12 05:41:39;;;;;;;5.10;4.13;;;;;;;;;;5069821;28;20063;-73
2021/06/12 05:44:05;;;;;;;6.95;3.83;;;;;;;;;;5054088;28;20021;-74
2021/06/12 05:46:31;;;;;;;7.32;3.95;;;;;;;;;;5072437;28;20385;-73
2021/06/12 05:48:59;;;;;;;7.60;4.20;;;;;;;;;;5054516;28;20039;-72
2021/06/12 05:51:25;;;;;;;5.72;3.85;;;;;;;;;;5071646;28;20023;-73
2021/06/12 05:53:51;;;;;;;6.93;3.80;;;;;;;;;;5071101;28;20518;-75
2021/06/12 05:56:17;;;;;;;6.60;4.40;;;;;;;;;;5052841;28;20103;-73
2021/06/12 05:58:44;;;;;;;9.02;4.35;;;;;;;;;;5071911;28;20021;-75
2021/06/12 06:01:12;;;;;;;5.05;3.88;;;;;;;;;;5070304;28;20474;-74
2021/06/12 06:03:38;;;;;;;5.50;4.20;;;;;;;;;;5071758;28;20097;-72
2021/06/12 06:06:06;;;;;;;5.88;4.30;;;;;;;;;;5072072;28;20056;-75
2021/06/12 06:08:32;;;;;;;10.88;4.45;;;;;;;;;;5071806;28;20016;-72
2021/06/12 06:10:58;;;;;;;5.88;4.32;;;;;;;;;;5072136;28;20021;-72
2021/06/12 06:13:24;;;;;;;8.73;4.45;;;;;;;;;;5050683;28;20413;-75
2021/06/12 06:15:50;;;;;;;5.68;4.45;;;;;;;;;;5052521;28;20532;-75
2021/06/12 06:18:16;;;;;;;6.10;4.40;;;;;;;;;;5051519;28;20079;-74
2021/06/12 06:20:42;;;;;;;8.25;4.30;;;;;;;;;;5053415;28;20481;-73
2021/06/12 06:23:08;;;;;;;8.05;4.82;;;;;;;;;;5053699;28;20029;-74
2021/06/12 06:25:34;;;;;;;7.60;4.68;;;;;;;;;;5068766;28;20088;-75
2021/06/12 06:28:00;;;;;;;6.30;4.10;;;;;;;;;;5067542;28;20603;-73
2021/06/12 06:30:27;;;;;;;8.25;4.57;;;;;;;;;;5070567;28;20133;-72
2021/06/12 06:32:53;;;;;;;9.35;4.78;;;;;;;;;;5069996;28;20672;-74
2021/06/12 06:35:19;;;;;;;6.65;5.00;;;;;;;;;;5071326;28;20695;-75
2021/06/12 06:37:45;;;;;;;7.13;4.57;;;;;;;;;;5053105;28;20024;-75
2021/06/12 06:40:11;;;;;;;9.07;4.97;;;;;;;;;;5068924;28;20021;-73
2021/06/12 06:42:37;;;;;;;5.45;4.53;;;;;;;;;;5069259;28;20381;-74
2021/06/12 06:45:04;;;;;;;10.93;4.90;;;;;;;;;;5070076;28;20029;-74
2021/06/12 06:47:30;;;;;;;8.27;5.15;;;;;;;;;;5070330;28;20671;-73
2021/06/12 06:49:56;;;;;;;5.63;4.50;;;;;;;;;;5070184;28;20028;-76
2021/06/12 06:52:22;;;;;;;6.37;4.80;;;;;;;;;;5071179;28;20082;-72
2021/06/12 06:54:48;;;;;;;6.38;4.28;;;;;;;;;;5070614;28;20125;-75
2021/06/12 06:57:16;;;;;;;8.15;4.63;;;;;;;;;;5068551;28;20043;-73
2021/06/12 06:59:42;;;;;;;7.70;4.97;;;;;;;;;;5068991;28;20074;-76
2021/06/12 07:02:08;;;;;;;7.63;4.93;;;;;;;;;;5062668;28;20423;-75
2021/06/12 07:04:37;;;;;;;9.57;5.30;;;;;;;;;;5066428;28;20078;-74
2021/06/12 07:07:04;;;;;;;7.63;5.03;;;;;;;;;;5066010;28;20056;-73
2021/06/12 07:09:30;;;;;;;;;;;;;;;;;;5064988;28;20040;-74
2021/06/12 07:11:58;;;;;;;8.23;5.30;;;;;;;;;;5067910;28;19905;-74
2021/06/12 07:14:24;;;;;;;7.60;5.20;;;;;;;;;;5066174;28;20077;-73
2021/06/12 07:16:50;;;;;;;7.57;5.47;;;;;;;;;;5068931;28;20024;-75
2021/06/12 07:19:16;;;;;;;8.80;5.60;;;;;;;;;;5068843;28;20837;-74
2021/06/12 07:21:43;;;;;;;7.07;4.83;;;;;;;;;;5067501;28;20078;-73
2021/06/12 07:24:09;;;;;;;10.90;5.00;;;;;;;;;;5070913;28;20028;-74
2021/06/12 07:26:35;;;;;;;7.07;5.28;;;;;;;;;;5071092;28;20087;-73
2021/06/12 07:29:01;;;;;;;7.30;5.28;;;;;;;;;;5063548;28;20029;-72
2021/06/12 07:31:27;;;;;;;11.90;5.60;;;;;;;;;;5066413;28;20028;-73
2021/06/12 07:33:53;;;;;;;8.23;5.57;;;;;;;;;;5071047;28;20362;-75
2021/06/12 07:36:21;;;;;;;6.60;5.38;;;;;;;;;;5049821;28;20036;-73
2021/06/12 07:38:47;;;;;;;8.70;5.57;;;;;;;;;;5065582;28;20052;-73
2021/06/12 07:41:13;;;;;;;9.85;6.03;;;;;;;;;;5049085;28;20032;-75
2021/06/12 07:43:39;;;;;;;7.82;6.22;;;;;;;;;;4699480;28;10000653;-73
2021/06/12 07:46:05;;;;;;;9.30;5.70;;;;;;;;;;5053065;28;20108;-76
2021/06/12 07:48:31;;;;;;;7.20;6.30;;;;;;;;;;5055341;28;20481;-75
2021/06/12 07:50:57;;;;;;;7.43;6.73;;;;;;;;;;5054559;28;20020;-74
2021/06/12 07:53:23;;;;;;;12.20;7.00;;;;;;;;;;5056640;28;20029;-76
2021/06/12 07:55:49;;;;;;;9.95;6.85;;;;;;;;;;5055535;28;20308;-73
2021/06/12 07:58:15;;;;;;;11.27;6.47;;;;;;;;;;5055488;28;20029;-74
2021/06/12 08:00:41;;;;;;;11.18;8.13;;;;;;;;;;5056548;28;20025;-74
2021/06/12 08:03:07;;;;;;;12.87;8.47;;;;;;;;;;5055084;28;20028;-75
2021/06/12 08:05:33;;;;;;;11.27;7.30;;;;;;;;;;5054784;28;20092;-75
2021/06/12 08:07:59;;;;;;;13.93;7.57;;;;;;;;;;5056292;28;20657;-75
2021/06/12 08:10:25;;;;;;;10.48;7.13;;;;;;;;;;5055307;28;20023;-75
2021/06/12 08:12:51;;;;;;;14.38;7.50;;;;;;;;;;5054027;28;20079;-76
2021/06/12 08:15:18;;;;;;;9.32;7.03;;;;;;;;;;5052739;28;20619;-75
2021/06/12 08:17:44;;;;;;;9.93;7.10;;;;;;;;;;5054557;28;20078;-74
2021/06/12 08:20:10;;;;;;;15.23;7.53;;;;;;;;;;5056366;28;20071;-75
2021/06/12 08:22:36;;;;;;;10.10;6.63;;;;;;;;;;5056400;28;20013;-76
2021/06/12 08:25:03;;;;;;;10.00;6.80;;;;;;;;;;5059146;28;21072;-77
2021/06/12 08:27:29;;;;;;;9.50;6.13;;;;;;;;;;5039321;28;20439;-74
2021/06/12 08:29:55;;;;;;;8.77;6.13;;;;;;;;;;5057920;28;20029;-72
2021/06/12 08:32:21;;;;;;;7.17;5.37;;;;;;;;;;5056854;28;20836;-76
2021/06/12 08:34:47;;;;;;;7.73;4.93;;;;;;;;;;5056877;28;20641;-75
2021/06/12 08:37:13;;;;;;;10.37;5.27;;;;;;;;;;5056536;28;20104;-74
2021/06/12 08:39:39;;;;;;;8.20;5.53;;;;;;;;;;5057637;28;21033;-75
2021/06/12 08:42:05;;;;;;;6.85;5.45;;;;;;;;;;5058703;28;20082;-73
2021/06/12 08:44:31;;;;;;;5.60;4.90;;;;;;;;;;5058686;28;20025;-74
2021/06/12 08:46:57;;;;;;;6.07;4.50;;;;;;;;;;5056180;28;20021;-76
2021/06/12 08:49:23;;;;;;;4.90;4.30;;;;;;;;;;5058018;28;20057;-74
2021/06/12 08:51:49;;;;;;;7.13;4.28;;;;;;;;;;5058373;28;20040;-73
2021/06/12 08:54:19;;;;;;;6.30;4.50;;;;;;;;;;5058752;28;20505;-73
2021/06/12 08:56:46;;;;;;;5.68;5.03;;;;;;;;;;5057815;28;20037;-76
2021/06/12 08:59:12;;;;;;;6.00;3.85;;;;;;;;;;5059610;28;20031;-74
2021/06/12 09:01:38;;;;;;;5.53;4.20;;;;;;;;;;5056424;28;20631;-76
2021/06/12 09:04:04;;;;;;;3.80;3.50;;;;;;;;;;5058858;28;20074;-74
2021/06/12 09:06:30;;;;;;;3.73;3.27;;;;;;;;;;5057893;28;20036;-76
2021/06/12 09:08:57;;;;;;;4.73;3.30;;;;;;;;;;5061778;28;20064;-74
2021/06/12 09:11:24;;;;;;;3.90;2.80;;;;;;;;;;5063429;28;20664;-75
2021/06/12 09:13:54;;;;;;;2.58;1.90;;;;;;;;;;5066044;28;20535;-77
2021/06/12 09:16:28;;;;;;;3.80;2.40;;;;;;;;;;5053219;28;20436;-74
2021/06/12 09:18:54;;;;;;;4.40;2.45;;;;;;;;;;5071451;28;20083;-76
2021/06/12 09:21:24;;;;;;;2.88;2.05;;;;;;;;;;5072228;28;20104;-75
2021/06/12 09:23:52;;;;;;;3.05;2.50;;;;;;;;;;5069911;28;20158;-74
2021/06/12 09:26:18;;;;;;;2.30;1.90;;;;;;;;;;5054971;28;20042;-76
2021/06/12 09:28:51;;;;;;;1.88;1.77;;;;;;;;;;5054511;28;20036;-76
2021/06/12 09:31:27;;;;;;;2.75;1.70;;;;;;;;;;5051495;28;20029;-77
2021/06/12 09:33:55;;;;;;;1.77;1.42;;;;;;;;;;5034857;28;20032;-77
2021/06/12 09:36:21;;;;;;;2.40;1.33;;;;;;;;;;5052424;28;20067;-77
2021/06/12 09:38:47;;;;;;;2.17;1.40;;;;;;;;;;5034814;28;20417;-76
2021/06/12 09:41:29;;;;;;;2.25;0.90;;;;;;;;;;5051256;28;20689;-76
2021/06/12 09:43:55;;;;;;;1.33;0.80;;;;;;;;;;5068901;28;20017;-77
2021/06/12 09:46:31;;;;;;;2.25;1.30;;;;;;;;;;5054906;28;20052;-77
2021/06/12 09:48:57;;;;;;;2.67;1.08;;;;;;;;;;5070470;28;20611;-76
2021/06/12 09:51:23;;;;;;;1.58;1.27;;;;;;;;;;5070578;28;20017;-77
2021/06/12 09:53:49;;;;;;;2.58;1.23;;;;;;;;;;5071145;28;20029;-77
2021/06/12 09:56:15;;;;;;;4.05;1.33;;;;;;;;;;5070691;28;20024;-76
2021/06/12 09:58:41;;;;;;;2.47;1.10;;;;;;;;;;5071457;28;20025;-77
2021/06/12 10:01:08;;;;;;;2.25;1.20;;;;;;;;;;5070660;28;20090;-77
2021/06/12 10:03:34;;;;;;;1.52;1.00;;;;;;;;;;5069471;28;20042;-77
2021/06/12 10:06:17;;;;;;;3.07;1.10;;;;;;;;;;5070123;28;20490;-77
2021/06/12 10:08:49;;;;;;;1.65;1.20;;;;;;;;;;5071575;28;20401;-76
2021/06/12 10:11:15;;;;;;;2.20;1.73;;;;;;;;;;5068856;28;20025;-78
2021/06/12 10:13:44;;;;;;;1.65;1.42;;;;;;;;;;5068834;28;20021;-76
2021/06/12 10:16:13;;;;;;;2.05;1.60;;;;;;;;;;5067686;28;20024;-75
2021/06/12 10:18:40;;;;;;;3.13;1.80;;;;;;;;;;5071517;28;20037;-77
2021/06/12 10:21:07;;;;;;;2.30;1.63;;;;;;;;;;5068546;28;20073;-76
2021/06/12 10:23:33;;;;;;;3.53;2.00;;;;;;;;;;5069499;28;20116;-76
2021/06/12 10:25:59;;;;;;;4.63;2.20;;;;;;;;;;5066933;28;20030;-76
2021/06/12 10:28:25;;;;;;;4.40;2.43;;;;;;;;;;5068570;28;20028;-78
2021/06/12 10:30:51;;;;;;;3.90;2.27;;;;;;;;;;5071218;28;20443;-76
2021/06/12 10:33:17;;;;;;;4.60;2.33;;;;;;;;;;5070127;28;20107;-78
2021/06/12 10:35:43;;;;;;;4.90;2.97;;;;;;;;;;5069864;28;20056;-77
2021/06/12 10:38:16;;;;;;;3.87;2.90;;;;;;;;;;5070134;28;20043;-77
2021/06/12 10:40:46;;;;;;;5.85;2.95;;;;;;;;;;5069487;28;20359;-75
2021/06/12 10:43:14;;;;;;;4.32;3.13;;;;;;;;;;5070386;28;20071;-78
2021/06/12 10:45:40;;;;;;;10.63;3.40;;;;;;;;;;5070886;28;20056;-75
2021/06/12 10:48:06;;;;;;;7.13;3.75;;;;;;;;;;5068791;28;20028;-76
2021/06/12 10:50:45;;;;;;;7.70;4.60;;;;;;;;;;5068609;28;20591;-77
2021/06/12 10:53:33;;;;;;;8.40;4.80;;;;;;;;;;5068718;28;20023;-77
2021/06/12 10:55:59;;;;;;;5.85;4.85;;;;;;;;;;5069719;28;20386;-75
2021/06/12 10:58:32;;;;;;;7.63;5.40;;;;;;;;;;5069384;28;20044;-77
2021/06/12 11:01:16;;;;;;;8.07;5.88;;;;;;;;;;5071114;28;20336;-75
2021/06/12 11:03:45;;;;;;;8.73;5.93;;;;;;;;;;5057214;28;20029;-77
2021/06/12 11:06:32;;;;;;;9.55;6.07;;;;;;;;;;5067767;28;20145;-78
2021/06/12 11:09:13;;;;;;;8.00;6.05;;;;;;;;;;4367769;28;10000705;-77
2021/06/12 11:11:42;;;;;;;7.25;5.60;;;;;;;;;;5071234;28;20075;-78
2021/06/12 11:14:38;;;;;;;7.53;5.18;;;;;;;;;;5068908;28;20545;-78
2021/06/12 11:17:07;;;;;;;8.43;4.78;;;;;;;;;;5048752;28;20128;-77
2021/06/12 11:19:39;;;;;;;4.72;3.97;;;;;;;;;;5065549;28;20048;-76
2021/06/12 11:22:24;;;;;;;7.07;4.25;;;;;;;;;;5063461;28;20024;-74
2021/06/12 11:24:51;;;;;;;6.53;4.65;;;;;;;;;;5053737;28;20387;-75
2021/06/12 11:27:17;;;;;;;;;;;;;;;;;;5069079;28;20441;-76
2021/06/12 11:30:01;;;;;;;6.30;4.22;;;;;;;;;;5070471;28;19931;-75
2021/06/12 11:32:27;;;;;;;5.20;4.45;;;;;;;;;;5060986;28;20056;-75
2021/06/12 11:34:53;;;;;;;7.57;4.80;;;;;;;;;;5062747;28;20090;-77
2021/06/12 11:37:20;;;;;;;4.90;4.50;;;;;;;;;;5071081;28;20032;-77
2021/06/12 11:39:54;;;;;;;7.43;4.65;;;;;;;;;;5070683;28;20017;-78
2021/06/12 11:42:20;;;;;;;4.70;4.10;;;;;;;;;;5068521;28;20025;-75
2021/06/12 11:44:48;;;;;;;4.43;3.90;;;;;;;;;;5071012;28;20074;-76
2021/06/12 11:47:29;;;;;;;4.72;4.15;;;;;;;;;;5070327;28;20049;-76
2021/06/12 11:49:55;;;;;;;5.85;4.43;;;;;;;;;;5069248;28;20482;-77
2021/06/12 11:52:21;;;;;;;6.68;4.20;;;;;;;;;;5068419;28;20055;-76
2021/06/12 11:54:47;;;;;;;6.05;4.40;;;;;;;;;;5067673;28;20044;-75
2021/06/12 11:57:13;;;;;;;4.32;3.95;;;;;;;;;;5069486;28;20044;-75
2021/06/12 11:59:40;;;;;;;5.57;4.55;;;;;;;;;;5072400;28;20024;-75
2021/06/12 12:02:09;;;;;;;6.97;4.22;;;;;;;;;;5055316;28;20994;-75
2021/06/12 12:04:35;;;;;;;6.72;4.63;;;;;;;;;;5056173;28;20028;-75
2021/06/12 12:07:02;;;;;;;9.57;4.78;;;;;;;;;;5070458;28;20074;-75
2021/06/12 12:09:28;;;;;;;;;;;;;;;;;;5070444;28;20086;-75
2021/06/12 12:11:56;;;;;;;7.03;4.72;;;;;;;;;;5071405;28;19944;-75
2021/06/12 12:14:33;;;;;;;6.70;4.65;;;;;;;;;;4700173;28;10000143;-76
2021/06/12 12:16:59;;;;;;;6.03;5.05;;;;;;;;;;5055884;28;20021;-75
2021/06/12 12:19:25;;;;;;;6.57;4.93;;;;;;;;;;5057518;28;20028;-75
2021/06/12 12:21:51;;;;;;;9.40;5.28;;;;;;;;;;5041953;28;20370;-76
2021/06/12 12:24:17;;;;;;;5.10;4.60;;;;;;;;;;5060282;28;20020;-75
2021/06/12 12:26:54;;;;;;;5.47;4.95;;;;;;;;;;5040016;28;20477;-74
2021/06/12 12:29:22;;;;;;;5.40;4.20;;;;;;;;;;5058017;28;20025;-76
2021/06/12 12:31:48;;;;;;;5.10;4.05;;;;;;;;;;5058401;28;20066;-76
2021/06/12 12:34:18;;;;;;;10.30;4.20;;;;;;;;;;5058102;28;20101;-76
2021/06/12 12:36:46;;;;;;;5.75;4.18;;;;;;;;;;5048715;28;20634;-76
2021/06/12 12:39:14;;;;;;;5.03;4.40;;;;;;;;;;5056655;28;20052;-75
2021/06/12 12:41:40;;;;;;;4.55;4.15;;;;;;;;;;5058587;28;20616;-75
2021/06/12 12:44:11;;;;;;;5.75;4.32;;;;;;;;;;5057803;28;20032;-75
2021/06/12 12:46:37;;;;;;;6.57;3.70;;;;;;;;;;5039403;28;20535;-75
2021/06/12 12:49:04;;;;;;;4.45;4.03;;;;;;;;;;5058910;28;20033;-75
2021/06/12 12:51:30;;;;;;;5.30;3.97;;;;;;;;;;5057010;28;20051;-74
2021/06/12 12:53:57;;;;;;;5.63;3.83;;;;;;;;;;5057102;28;20033;-75
2021/06/12 12:56:25;;;;;;;;;;;;;;;;;;5056884;28;20100;-75
2021/06/12 12:58:52;;;;;;;8.90;4.18;;;;;;;;;;5058199;28;20289;-74
2021/06/12 13:01:18;;;;;;;;;;;;;;;;;;5058978;28;20017;-75
2021/06/12 13:03:48;;;;;;;6.67;4.17;;;;;;;;;;5058359;28;19913;-75
2021/06/12 13:06:33;;;;;;;5.93;4.28;;;;;;;;;;5057899;28;20028;-76
2021/06/12 13:09:19;;;;;;;4.88;4.38;;;;;;;;;;5055540;28;20069;-75
2021/06/12 13:11:46;;;;;;;7.82;4.50;;;;;;;;;;5055712;28;20052;-75
2021/06/12 13:14:22;;;;;;;5.18;4.68;;;;;;;;;;5047483;28;20082;-75
2021/06/12 13:17:08;;;;;;;5.63;4.60;;;;;;;;;;5038930;28;20115;-75
2021/06/12 13:19:35;;;;;;;6.38;4.85;;;;;;;;;;5057914;28;20029;-75
2021/06/12 13:22:01;;;;;;;6.32;5.07;;;;;;;;;;5039877;28;20138;-76
2021/06/12 13:24:27;;;;;;;7.70;5.32;;;;;;;;;;5042820;28;20039;-76
2021/06/12 13:26:53;;;;;;;10.70;5.32;;;;;;;;;;5058508;28;20657;-76
2021/06/12 13:29:19;;;;;;;7.93;5.60;;;;;;;;;;5058462;28;20029;-76
2021/06/12 13:31:47;;;;;;;6.50;5.40;;;;;;;;;;5059365;28;20071;-75
2021/06/12 13:34:23;;;;;;;6.70;5.10;;;;;;;;;;5056825;28;20096;-76
2021/06/12 13:36:56;;;;;;;9.00;5.00;;;;;;;;;;5055363;28;20684;-75
2021/06/12 13:39:29;;;;;;;7.90;4.82;;;;;;;;;;5056635;28;20028;-76
2021/06/12 13:42:14;;;;;;;6.25;4.30;;;;;;;;;;5058663;28;20025;-75
2021/06/12 13:44:46;;;;;;;6.03;4.20;;;;;;;;;;5040765;28;20437;-76
2021/06/12 13:47:14;;;;;;;4.57;3.83;;;;;;;;;;5060412;28;20576;-76
2021/06/12 13:49:40;;;;;;;5.03;3.70;;;;;;;;;;5052583;28;20326;-75
2021/06/12 13:52:07;;;;;;;5.53;3.75;;;;;;;;;;5054145;28;20093;-75
2021/06/12 13:54:35;;;;;;;5.10;4.50;;;;;;;;;;5056397;28;20063;-75
2021/06/12 13:57:01;;;;;;;5.60;3.90;;;;;;;;;;5055152;28;20028;-75
2021/06/12 13:59:27;;;;;;;5.85;4.18;;;;;;;;;;5055250;28;20031;-75
2021/06/12 14:01:53;;;;;;;5.65;4.30;;;;;;;;;;5058279;28;20028;-75
2021/06/12 14:04:19;;;;;;;7.22;4.53;;;;;;;;;;5059929;28;20167;-75
2021/06/12 14:06:45;;;;;;;6.80;4.07;;;;;;;;;;5057530;28;20025;-75
2021/06/12 14:09:11;;;;;;;4.53;4.05;;;;;;;;;;5047214;28;20032;-76
2021/06/12 14:11:37;;;;;;;5.53;4.55;;;;;;;;;;5057028;28;20082;-76
2021/06/12 14:14:04;;;;;;;4.13;3.72;;;;;;;;;;5054039;28;20115;-76
2021/06/12 14:16:30;;;;;;;5.05;4.32;;;;;;;;;;5057744;28;20039;-76
2021/06/12 14:18:56;;;;;;;4.93;4.25;;;;;;;;;;5041351;28;20025;-75
2021/06/12 14:21:23;;;;;;;6.22;4.57;;;;;;;;;;5044856;28;20559;-76
2021/06/12 14:23:49;;;;;;;6.40;4.35;;;;;;;;;;5058832;28;20056;-75
2021/06/12 14:26:15;;;;;;;4.95;4.40;;;;;;;;;;5059724;28;20747;-75
2021/06/12 14:28:41;;;;;;;6.28;4.38;;;;;;;;;;5057609;28;20197;-73
2021/06/12 14:31:08;;;;;;;5.38;4.70;;;;;;;;;;5039461;28;20081;-74
2021/06/12 14:33:34;;;;;;;5.25;4.20;;;;;;;;;;5056711;28;20035;-74
2021/06/12 14:36:00;;;;;;;4.05;3.55;;;;;;;;;;5053654;28;20115;-75
2021/06/12 14:38:26;;;;;;;6.50;4.20;;;;;;;;;;5056139;28;20075;-74
2021/06/12 14:40:52;;;;;;;4.72;4.20;;;;;;;;;;5056649;28;20021;-74
2021/06/12 14:43:18;;;;;;;5.63;5.05;;;;;;;;;;5057578;28;20060;-75
2021/06/12 14:45:44;;;;;;;6.22;4.47;;;;;;;;;;5055161;28;20399;-74